createdAt,value
2023-02-15T00:00:00.285Z,2.61
2023-02-15T00:00:10.251Z,2.61
2023-02-15T00:00:20.274Z,2.60
2023-02-15T00:00:30.279Z,2.62
2023-02-15T00:00:40.245Z,2.61
2023-02-15T00:00:50.229Z,2.61
2023-02-15T00:01:00.242Z,2.61
2023-02-15T00:01:10.248Z,2.61
2023-02-15T00:01:20.233Z,2.60
2023-02-15T00:01:30.258Z,2.61
2023-02-15T00:01:40.316Z,2.61
2023-02-15T00:01:50.323Z,2.62
2023-02-15T00:02:00.267Z,2.62
2023-02-15T00:02:10.281Z,2.60
2023-02-15T00:02:20.246Z,2.58
2023-02-15T00:02:30.220Z,2.61
2023-02-15T00:02:40.253Z,2.61
2023-02-15T00:02:50.277Z,2.61
2023-02-15T00:03:00.318Z,2.64
2023-02-15T00:03:10.254Z,2.61
2023-02-15T00:03:20.265Z,2.60
2023-02-15T00:03:30.230Z,2.62
2023-02-15T00:03:40.344Z,2.62
2023-02-15T00:03:50.230Z,2.62
2023-02-15T00:04:00.222Z,2.61
2023-02-15T00:04:10.247Z,2.61
2023-02-15T00:04:20.228Z,2.64
2023-02-15T00:04:30.244Z,2.65
2023-02-15T00:04:40.239Z,2.64
2023-02-15T00:04:50.238Z,2.61
2023-02-15T00:05:00.242Z,2.62
2023-02-15T00:05:10.257Z,2.61
2023-02-15T00:05:20.226Z,2.61
2023-02-15T00:05:30.234Z,2.61
2023-02-15T00:05:40.244Z,2.62
2023-02-15T00:05:50.236Z,2.61
2023-02-15T00:06:00.428Z,2.61
2023-02-15T00:06:10.245Z,2.62
2023-02-15T00:06:20.229Z,2.62
2023-02-15T00:06:30.241Z,2.62
2023-02-15T00:06:40.231Z,2.65
2023-02-15T00:06:50.229Z,2.62
2023-02-15T00:07:00.226Z,2.64
2023-02-15T00:07:10.215Z,2.61
2023-02-15T00:07:20.233Z,2.64
2023-02-15T00:07:30.228Z,2.62
2023-02-15T00:07:40.217Z,2.62
2023-02-15T00:07:50.215Z,2.62
2023-02-15T00:08:00.209Z,2.64
2023-02-15T00:08:10.218Z,2.62
2023-02-15T00:08:20.222Z,2.62
2023-02-15T00:08:30.227Z,2.64
2023-02-15T00:08:40.230Z,2.62
2023-02-15T00:08:50.307Z,2.64
2023-02-15T00:09:00.241Z,2.64
2023-02-15T00:09:10.216Z,2.65
2023-02-15T00:09:20.219Z,2.65
2023-02-15T00:09:30.220Z,2.65
2023-02-15T00:09:40.208Z,2.67
2023-02-15T00:09:50.214Z,2.64
2023-02-15T00:10:00.208Z,2.64
2023-02-15T00:10:10.246Z,2.65
2023-02-15T00:10:20.220Z,2.65
2023-02-15T00:10:30.213Z,2.64
2023-02-15T00:10:40.213Z,2.67
2023-02-15T00:10:50.218Z,2.67
2023-02-15T00:11:00.224Z,2.67
2023-02-15T00:11:10.216Z,2.65
2023-02-15T00:11:20.220Z,2.62
2023-02-15T00:11:30.226Z,2.65
2023-02-15T00:11:40.196Z,2.67
2023-02-15T00:11:50.188Z,2.64
2023-02-15T00:12:00.200Z,2.65
2023-02-15T00:12:10.210Z,2.65
2023-02-15T00:12:20.207Z,2.65
2023-02-15T00:12:30.200Z,2.67
2023-02-15T00:12:40.219Z,2.68
2023-02-15T00:12:50.189Z,2.67
2023-02-15T00:13:00.191Z,2.65
2023-02-15T00:13:10.200Z,2.67
2023-02-15T00:13:20.204Z,2.68
2023-02-15T00:13:30.194Z,2.67
2023-02-15T00:13:40.196Z,2.69
2023-02-15T00:13:50.203Z,2.67
2023-02-15T00:14:00.249Z,2.65
2023-02-15T00:14:10.207Z,2.67
2023-02-15T00:14:20.199Z,2.65
2023-02-15T00:14:30.194Z,2.68
2023-02-15T00:14:40.210Z,2.68
2023-02-15T00:14:50.195Z,2.68
2023-02-15T00:15:00.196Z,2.68
2023-02-15T00:15:10.206Z,2.65
2023-02-15T00:15:20.198Z,2.71
2023-02-15T00:15:30.196Z,2.69
2023-02-15T00:15:40.194Z,2.69
2023-02-15T00:15:50.190Z,2.72
2023-02-15T00:16:00.509Z,2.69
2023-02-15T00:16:10.222Z,2.71
2023-02-15T00:16:20.212Z,2.71
2023-02-15T00:16:30.261Z,2.72
2023-02-15T00:16:40.206Z,2.71
2023-02-15T00:16:50.201Z,2.69
2023-02-15T00:17:00.193Z,2.72
2023-02-15T00:17:10.203Z,2.72
2023-02-15T00:17:20.194Z,2.71
2023-02-15T00:17:30.204Z,2.72
2023-02-15T00:17:40.198Z,2.74
2023-02-15T00:17:50.203Z,2.74
2023-02-15T00:18:00.202Z,2.71
2023-02-15T00:18:10.199Z,2.75
2023-02-15T00:18:20.196Z,2.74
2023-02-15T00:18:30.206Z,2.71
2023-02-15T00:18:40.196Z,2.74
2023-02-15T00:18:50.210Z,2.71
2023-02-15T00:19:00.172Z,2.72
2023-02-15T00:19:10.223Z,2.72
2023-02-15T00:19:20.183Z,2.74
2023-02-15T00:19:30.175Z,2.71
2023-02-15T00:19:40.193Z,2.72
2023-02-15T00:19:50.169Z,2.75
2023-02-15T00:20:00.162Z,2.72
2023-02-15T00:20:10.169Z,2.71
2023-02-15T00:20:20.169Z,2.72
2023-02-15T00:20:30.180Z,2.71
2023-02-15T00:20:40.164Z,2.74
2023-02-15T00:20:50.180Z,2.74
2023-02-15T00:21:00.169Z,2.74
2023-02-15T00:21:10.165Z,2.74
2023-02-15T00:21:20.174Z,2.77
2023-02-15T00:21:30.169Z,2.74
2023-02-15T00:21:40.163Z,2.77
2023-02-15T00:21:50.168Z,2.77
2023-02-15T00:22:00.167Z,2.77
2023-02-15T00:22:10.173Z,2.77
2023-02-15T00:22:20.168Z,2.75
2023-02-15T00:22:30.189Z,2.78
2023-02-15T00:22:40.182Z,2.78
2023-02-15T00:22:50.182Z,2.78
2023-02-15T00:23:00.182Z,2.77
2023-02-15T00:23:10.156Z,2.75
2023-02-15T00:23:20.197Z,2.77
2023-02-15T00:23:30.194Z,2.78
2023-02-15T00:23:40.198Z,2.77
2023-02-15T00:23:50.213Z,2.78
2023-02-15T00:24:00.248Z,2.78
2023-02-15T00:24:10.292Z,2.77
2023-02-15T00:24:20.258Z,2.77
2023-02-15T00:24:30.259Z,2.78
2023-02-15T00:24:40.259Z,2.77
2023-02-15T00:24:50.267Z,2.78
2023-02-15T00:25:00.277Z,2.77
2023-02-15T00:25:10.270Z,2.78
2023-02-15T00:25:20.293Z,2.78
2023-02-15T00:25:30.292Z,2.78
2023-02-15T00:25:40.289Z,2.77
2023-02-15T00:25:50.313Z,2.75
2023-02-15T00:26:00.726Z,2.75
2023-02-15T00:26:10.319Z,2.77
2023-02-15T00:26:20.337Z,2.71
2023-02-15T00:26:30.330Z,2.69
2023-02-15T00:26:40.314Z,2.67
2023-02-15T00:26:50.336Z,2.68
2023-02-15T00:27:00.323Z,2.67
2023-02-15T00:27:10.381Z,2.67
2023-02-15T00:27:20.312Z,2.67
2023-02-15T00:27:30.308Z,2.68
2023-02-15T00:27:40.312Z,2.68
2023-02-15T00:27:50.330Z,2.67
2023-02-15T00:28:00.322Z,2.67
2023-02-15T00:28:10.339Z,2.67
2023-02-15T00:28:20.326Z,2.69
2023-02-15T00:28:30.321Z,2.65
2023-02-15T00:28:40.326Z,2.68
2023-02-15T00:28:50.328Z,2.64
2023-02-15T00:29:00.325Z,2.65
2023-02-15T00:29:10.359Z,2.65
2023-02-15T00:29:20.317Z,2.65
2023-02-15T00:29:30.305Z,2.65
2023-02-15T00:29:40.325Z,2.65
2023-02-15T00:29:50.366Z,2.65
2023-02-15T00:30:00.341Z,2.61
2023-02-15T00:30:10.339Z,2.62
2023-02-15T00:30:20.365Z,2.62
2023-02-15T00:30:30.479Z,2.61
2023-02-15T00:30:40.354Z,2.60
2023-02-15T00:30:50.382Z,2.57
2023-02-15T00:31:00.454Z,2.54
2023-02-15T00:31:10.415Z,2.54
2023-02-15T00:31:20.393Z,2.54
2023-02-15T00:31:30.418Z,2.53
2023-02-15T00:31:40.388Z,2.53
2023-02-15T00:31:50.398Z,2.53
2023-02-15T00:32:00.339Z,2.50
2023-02-15T00:32:10.323Z,2.47
2023-02-15T00:32:20.334Z,2.47
2023-02-15T00:32:30.336Z,2.44
2023-02-15T00:32:40.334Z,2.41
2023-02-15T00:32:50.367Z,2.43
2023-02-15T00:33:00.374Z,2.44
2023-02-15T00:33:10.379Z,2.40
2023-02-15T00:33:20.396Z,2.45
2023-02-15T00:33:30.396Z,2.41
2023-02-15T00:33:40.396Z,2.41
2023-02-15T00:33:50.408Z,2.41
2023-02-15T00:34:00.411Z,2.43
2023-02-15T00:34:10.455Z,2.43
2023-02-15T00:34:20.433Z,2.43
2023-02-15T00:34:30.470Z,2.43
2023-02-15T00:34:40.436Z,2.41
2023-02-15T00:34:50.469Z,2.41
2023-02-15T00:35:00.466Z,2.43
2023-02-15T00:35:10.473Z,2.43
2023-02-15T00:35:20.495Z,2.41
2023-02-15T00:35:30.495Z,2.40
2023-02-15T00:35:40.496Z,2.38
2023-02-15T00:35:50.517Z,2.33
2023-02-15T00:36:00.858Z,2.33
2023-02-15T00:36:10.510Z,2.34
2023-02-15T00:36:20.515Z,2.33
2023-02-15T00:36:30.532Z,2.36
2023-02-15T00:36:40.508Z,2.36
2023-02-15T00:36:50.503Z,2.37
2023-02-15T00:37:00.533Z,2.36
2023-02-15T00:37:10.526Z,2.36
2023-02-15T00:37:20.527Z,2.36
2023-02-15T00:37:30.556Z,2.37
2023-02-15T00:37:40.525Z,2.40
2023-02-15T00:37:50.539Z,2.40
2023-02-15T00:38:00.519Z,2.36
2023-02-15T00:38:10.517Z,2.37
2023-02-15T00:38:20.523Z,2.36
2023-02-15T00:38:30.533Z,2.37
2023-02-15T00:38:40.509Z,2.36
2023-02-15T00:38:50.534Z,2.38
2023-02-15T00:39:00.534Z,2.37
2023-02-15T00:39:10.597Z,2.36
2023-02-15T00:39:20.515Z,2.36
2023-02-15T00:39:30.528Z,2.38
2023-02-15T00:39:40.512Z,2.37
2023-02-15T00:39:50.519Z,2.36
2023-02-15T00:40:00.533Z,2.34
2023-02-15T00:40:10.517Z,2.37
2023-02-15T00:40:20.512Z,2.33
2023-02-15T00:40:30.547Z,2.34
2023-02-15T00:40:40.496Z,2.34
2023-02-15T00:40:50.500Z,2.33
2023-02-15T00:41:00.497Z,2.33
2023-02-15T00:41:10.532Z,2.34
2023-02-15T00:41:20.499Z,2.34
2023-02-15T00:41:30.479Z,2.34
2023-02-15T00:41:40.502Z,2.36
2023-02-15T00:41:50.488Z,2.34
2023-02-15T00:42:00.514Z,2.36
2023-02-15T00:42:10.495Z,2.36
2023-02-15T00:42:20.542Z,2.36
2023-02-15T00:42:30.541Z,2.34
2023-02-15T00:42:40.510Z,2.33
2023-02-15T00:42:50.553Z,2.34
2023-02-15T00:43:00.546Z,2.34
2023-02-15T00:43:10.539Z,2.34
2023-02-15T00:43:20.579Z,2.34
2023-02-15T00:43:30.577Z,2.33
2023-02-15T00:43:40.597Z,2.29
2023-02-15T00:43:50.593Z,2.27
2023-02-15T00:44:00.593Z,2.27
2023-02-15T00:44:10.610Z,2.26
2023-02-15T00:44:20.689Z,2.26
2023-02-15T00:44:30.619Z,2.22
2023-02-15T00:44:40.611Z,2.23
2023-02-15T00:44:50.674Z,2.26
2023-02-15T00:45:00.656Z,2.24
2023-02-15T00:45:10.660Z,2.24
2023-02-15T00:45:20.669Z,2.23
2023-02-15T00:45:30.684Z,2.23
2023-02-15T00:45:40.702Z,2.24
2023-02-15T00:45:50.758Z,2.24
2023-02-15T00:46:01.077Z,2.26
2023-02-15T00:46:10.711Z,2.26
2023-02-15T00:46:20.769Z,2.27
2023-02-15T00:46:30.705Z,2.26
2023-02-15T00:46:40.700Z,2.24
2023-02-15T00:46:50.699Z,2.27
2023-02-15T00:47:00.698Z,2.24
2023-02-15T00:47:10.686Z,2.26
2023-02-15T00:47:20.693Z,2.26
2023-02-15T00:47:30.700Z,2.23
2023-02-15T00:47:40.688Z,2.24
2023-02-15T00:47:50.704Z,2.26
2023-02-15T00:48:00.698Z,2.22
2023-02-15T00:48:10.705Z,2.20
2023-02-15T00:48:20.705Z,2.23
2023-02-15T00:48:30.700Z,2.22
2023-02-15T00:48:40.683Z,2.23
2023-02-15T00:48:50.700Z,2.20
2023-02-15T00:49:00.707Z,2.20
2023-02-15T00:49:10.705Z,2.20
2023-02-15T00:49:20.688Z,2.19
2023-02-15T00:49:30.724Z,2.16
2023-02-15T00:49:40.697Z,2.13
2023-02-15T00:49:50.712Z,2.15
2023-02-15T00:50:00.701Z,2.16
2023-02-15T00:50:10.694Z,2.16
2023-02-15T00:50:22.875Z,2.13
2023-02-15T00:50:30.730Z,2.15
2023-02-15T00:50:40.707Z,2.15
2023-02-15T00:50:50.724Z,2.15
2023-02-15T00:51:00.731Z,2.15
2023-02-15T00:51:10.705Z,2.16
2023-02-15T00:51:20.716Z,2.17
2023-02-15T00:51:30.733Z,2.17
2023-02-15T00:51:40.716Z,2.16
2023-02-15T00:51:50.714Z,2.16
2023-02-15T00:52:00.769Z,2.16
2023-02-15T00:52:10.727Z,2.15
2023-02-15T00:52:20.725Z,2.16
2023-02-15T00:52:30.712Z,2.16
2023-02-15T00:52:40.720Z,2.17
2023-02-15T00:52:50.693Z,2.15
2023-02-15T00:53:00.694Z,2.17
2023-02-15T00:53:10.694Z,2.15
2023-02-15T00:53:20.696Z,2.15
2023-02-15T00:53:30.714Z,2.15
2023-02-15T00:53:40.690Z,2.12
2023-02-15T00:53:50.702Z,2.12
2023-02-15T00:54:00.707Z,2.12
2023-02-15T00:54:10.690Z,2.12
2023-02-15T00:54:20.706Z,2.10
2023-02-15T00:54:30.755Z,2.09
2023-02-15T00:54:40.696Z,2.10
2023-02-15T00:54:50.695Z,2.12
2023-02-15T00:55:00.715Z,2.12
2023-02-15T00:55:10.693Z,2.12
2023-02-15T00:55:20.698Z,2.12
2023-02-15T00:55:30.694Z,2.10
2023-02-15T00:55:40.684Z,2.12
2023-02-15T00:55:50.693Z,2.13
2023-02-15T00:56:01.016Z,2.12
2023-02-15T00:56:10.698Z,2.08
2023-02-15T00:56:20.710Z,2.09
2023-02-15T00:56:30.694Z,2.09
2023-02-15T00:56:40.698Z,2.09
2023-02-15T00:56:50.699Z,2.10
2023-02-15T00:57:00.705Z,2.09
2023-02-15T00:57:10.693Z,2.09
2023-02-15T00:57:20.697Z,2.09
2023-02-15T00:57:30.693Z,2.08
2023-02-15T00:57:40.705Z,2.09
2023-02-15T00:57:50.683Z,2.09
2023-02-15T00:58:00.721Z,2.09
2023-02-15T00:58:10.700Z,2.10
2023-02-15T00:58:20.694Z,2.10
2023-02-15T00:58:30.689Z,2.09
2023-02-15T00:58:40.695Z,2.08
2023-02-15T00:58:50.688Z,2.08
2023-02-15T00:59:00.701Z,2.05
2023-02-15T00:59:10.709Z,2.09
2023-02-15T00:59:20.694Z,2.08
2023-02-15T00:59:30.708Z,2.08
2023-02-15T00:59:40.743Z,2.10
2023-02-15T00:59:50.697Z,2.08
2023-02-15T01:00:00.680Z,2.06
2023-02-15T01:00:10.684Z,2.06
2023-02-15T01:00:20.682Z,2.06
2023-02-15T01:00:30.668Z,2.06
2023-02-15T01:00:40.682Z,2.06
2023-02-15T01:00:50.698Z,2.06
2023-02-15T01:01:00.682Z,2.06
2023-02-15T01:01:10.728Z,2.08
2023-02-15T01:01:20.744Z,2.05
2023-02-15T01:01:30.730Z,2.06
2023-02-15T01:01:40.671Z,2.06
2023-02-15T01:01:50.684Z,2.08
2023-02-15T01:02:00.681Z,2.09
2023-02-15T01:02:10.678Z,2.01
2023-02-15T01:02:20.681Z,2.04
2023-02-15T01:02:30.663Z,2.06
2023-02-15T01:02:40.668Z,2.05
2023-02-15T01:02:50.683Z,2.04
2023-02-15T01:03:00.683Z,2.02
2023-02-15T01:03:10.678Z,2.04
2023-02-15T01:03:20.689Z,2.02
2023-02-15T01:03:30.668Z,1.92
2023-02-15T01:03:40.669Z,1.92
2023-02-15T01:03:50.680Z,1.94
2023-02-15T01:04:00.755Z,1.95
2023-02-15T01:04:10.747Z,1.96
2023-02-15T01:04:20.723Z,2.01
2023-02-15T01:04:30.776Z,1.98
2023-02-15T01:04:40.816Z,1.99
2023-02-15T01:04:50.754Z,1.99
2023-02-15T01:05:00.766Z,1.98
2023-02-15T01:05:10.763Z,1.99
2023-02-15T01:05:20.764Z,2.01
2023-02-15T01:05:30.786Z,2.01
2023-02-15T01:05:40.794Z,1.98
2023-02-15T01:05:50.781Z,2.01
2023-02-15T01:06:00.987Z,2.01
2023-02-15T01:06:10.799Z,2.01
2023-02-15T01:06:20.810Z,2.04
2023-02-15T01:06:30.793Z,1.96
2023-02-15T01:06:40.833Z,2.01
2023-02-15T01:06:50.801Z,1.99
2023-02-15T01:07:00.793Z,2.01
2023-02-15T01:07:10.796Z,2.02
2023-02-15T01:07:20.810Z,2.02
2023-02-15T01:07:30.798Z,2.01
2023-02-15T01:07:40.799Z,2.01
2023-02-15T01:07:52.519Z,1.96
2023-02-15T01:08:00.794Z,1.98
2023-02-15T01:08:10.796Z,1.99
2023-02-15T01:08:20.794Z,1.99
2023-02-15T01:08:30.788Z,1.99
2023-02-15T01:08:40.800Z,2.01
2023-02-15T01:08:50.794Z,2.01
2023-02-15T01:09:00.797Z,1.99
2023-02-15T01:09:10.793Z,2.02
2023-02-15T01:09:20.791Z,2.01
2023-02-15T01:09:30.792Z,2.04
2023-02-15T01:09:40.784Z,2.01
2023-02-15T01:09:50.862Z,2.01
2023-02-15T01:10:00.794Z,2.02
2023-02-15T01:10:10.781Z,2.02
2023-02-15T01:10:20.777Z,2.02
2023-02-15T01:10:30.779Z,2.04
2023-02-15T01:10:40.801Z,2.02
2023-02-15T01:10:50.779Z,2.04
2023-02-15T01:11:00.781Z,2.01
2023-02-15T01:11:10.769Z,2.02
2023-02-15T01:11:20.770Z,2.02
2023-02-15T01:11:30.784Z,2.02
2023-02-15T01:11:40.785Z,2.04
2023-02-15T01:11:50.775Z,2.02
2023-02-15T01:12:00.775Z,2.04
2023-02-15T01:12:10.782Z,2.01
2023-02-15T01:12:20.820Z,2.04
2023-02-15T01:12:30.792Z,2.02
2023-02-15T01:12:40.787Z,2.06
2023-02-15T01:12:50.784Z,2.02
2023-02-15T01:13:00.774Z,2.02
2023-02-15T01:13:10.781Z,2.04
2023-02-15T01:13:20.776Z,2.05
2023-02-15T01:13:30.772Z,2.02
2023-02-15T01:13:40.787Z,2.02
2023-02-15T01:13:50.794Z,2.05
2023-02-15T01:14:00.783Z,2.04
2023-02-15T01:14:10.796Z,2.02
2023-02-15T01:14:20.783Z,2.01
2023-02-15T01:14:30.784Z,2.01
2023-02-15T01:14:40.776Z,1.96
2023-02-15T01:14:50.773Z,1.94
2023-02-15T01:15:00.826Z,1.92
2023-02-15T01:15:10.777Z,1.89
2023-02-15T01:15:20.773Z,1.92
2023-02-15T01:15:30.777Z,1.94
2023-02-15T01:15:43.055Z,1.92
2023-02-15T01:15:50.804Z,1.92
2023-02-15T01:16:01.122Z,1.95
2023-02-15T01:16:10.787Z,1.94
2023-02-15T01:16:20.870Z,1.95
2023-02-15T01:16:30.798Z,1.95
2023-02-15T01:16:40.787Z,1.96
2023-02-15T01:16:50.746Z,1.98
2023-02-15T01:17:00.763Z,1.96
2023-02-15T01:17:10.762Z,1.96
2023-02-15T01:17:20.858Z,1.98
2023-02-15T01:17:30.765Z,1.98
2023-02-15T01:17:40.766Z,1.99
2023-02-15T01:17:50.747Z,1.99
2023-02-15T01:18:00.748Z,1.96
2023-02-15T01:18:10.762Z,1.96
2023-02-15T01:18:20.756Z,1.98
2023-02-15T01:18:30.755Z,1.98
2023-02-15T01:18:40.764Z,1.98
2023-02-15T01:18:50.758Z,1.99
2023-02-15T01:19:00.766Z,1.99
2023-02-15T01:19:10.753Z,1.98
2023-02-15T01:19:20.755Z,1.99
2023-02-15T01:19:30.760Z,2.02
2023-02-15T01:19:40.748Z,2.01
2023-02-15T01:19:50.766Z,2.01
2023-02-15T01:20:00.773Z,2.01
2023-02-15T01:20:10.837Z,2.02
2023-02-15T01:20:20.785Z,2.01
2023-02-15T01:20:30.779Z,2.01
2023-02-15T01:20:40.755Z,2.02
2023-02-15T01:20:50.792Z,2.04
2023-02-15T01:21:00.753Z,2.02
2023-02-15T01:21:10.772Z,2.05
2023-02-15T01:21:20.818Z,2.04
2023-02-15T01:21:30.796Z,2.05
2023-02-15T01:21:40.804Z,2.05
2023-02-15T01:21:50.822Z,2.05
2023-02-15T01:22:00.828Z,2.05
2023-02-15T01:22:10.818Z,2.05
2023-02-15T01:22:20.843Z,2.05
2023-02-15T01:22:30.845Z,2.05
2023-02-15T01:22:40.845Z,2.05
2023-02-15T01:22:50.888Z,2.05
2023-02-15T01:23:00.893Z,2.04
2023-02-15T01:23:10.887Z,2.02
2023-02-15T01:23:20.894Z,2.04
2023-02-15T01:23:30.899Z,2.01
2023-02-15T01:23:40.905Z,1.99
2023-02-15T01:23:50.930Z,2.04
2023-02-15T01:24:00.928Z,2.02
2023-02-15T01:24:10.926Z,2.02
2023-02-15T01:24:20.934Z,2.02
2023-02-15T01:24:30.939Z,2.05
2023-02-15T01:24:40.941Z,2.04
2023-02-15T01:24:50.979Z,2.02
2023-02-15T01:25:01.025Z,2.06
2023-02-15T01:25:11.039Z,2.02
2023-02-15T01:25:21.003Z,2.01
2023-02-15T01:25:30.993Z,2.02
2023-02-15T01:25:41.014Z,1.98
2023-02-15T01:25:51.020Z,1.99
2023-02-15T01:26:01.334Z,2.02
2023-02-15T01:26:11.031Z,2.02
2023-02-15T01:26:21.086Z,2.02
2023-02-15T01:26:31.015Z,2.02
2023-02-15T01:26:41.011Z,2.04
2023-02-15T01:26:51.015Z,2.02
2023-02-15T01:27:01.017Z,2.01
2023-02-15T01:27:11.016Z,2.01
2023-02-15T01:27:21.025Z,2.04
2023-02-15T01:27:31.014Z,2.02
2023-02-15T01:27:41.026Z,2.05
2023-02-15T01:27:51.027Z,2.04
2023-02-15T01:28:01.017Z,2.02
2023-02-15T01:28:11.018Z,2.05
2023-02-15T01:28:21.029Z,2.05
2023-02-15T01:28:31.016Z,2.06
2023-02-15T01:28:41.012Z,2.05
2023-02-15T01:28:51.021Z,2.08
2023-02-15T01:29:01.023Z,2.05
2023-02-15T01:29:11.008Z,2.02
2023-02-15T01:29:21.024Z,2.05
2023-02-15T01:29:31.025Z,2.06
2023-02-15T01:29:41.011Z,2.06
2023-02-15T01:29:51.022Z,2.04
2023-02-15T01:30:01.082Z,2.06
2023-02-15T01:30:11.057Z,2.06
2023-02-15T01:30:21.091Z,2.06
2023-02-15T01:30:31.018Z,2.09
2023-02-15T01:30:41.026Z,2.05
2023-02-15T01:30:51.101Z,2.06
2023-02-15T01:31:01.092Z,2.06
2023-02-15T01:31:11.135Z,2.06
2023-02-15T01:31:21.163Z,2.06
2023-02-15T01:31:31.070Z,2.09
2023-02-15T01:31:41.089Z,2.08
2023-02-15T01:31:51.131Z,2.09
2023-02-15T01:32:01.258Z,2.08
2023-02-15T01:32:11.076Z,2.06
2023-02-15T01:32:21.082Z,2.06
2023-02-15T01:32:31.080Z,2.04
2023-02-15T01:32:41.083Z,2.05
2023-02-15T01:32:51.106Z,2.04
2023-02-15T01:33:01.096Z,2.05
2023-02-15T01:33:11.100Z,2.02
2023-02-15T01:33:21.119Z,1.98
2023-02-15T01:33:31.129Z,1.95
2023-02-15T01:33:41.135Z,1.90
2023-02-15T01:33:51.145Z,1.92
2023-02-15T01:34:01.170Z,1.90
2023-02-15T01:34:11.143Z,1.94
2023-02-15T01:34:21.199Z,1.90
2023-02-15T01:34:31.177Z,1.94
2023-02-15T01:34:41.181Z,1.92
2023-02-15T01:34:51.210Z,1.90
2023-02-15T01:35:01.204Z,1.92
2023-02-15T01:35:11.212Z,1.94
2023-02-15T01:35:21.274Z,1.94
2023-02-15T01:35:31.224Z,1.95
2023-02-15T01:35:41.222Z,1.94
2023-02-15T01:35:51.261Z,1.92
2023-02-15T01:36:01.394Z,1.92
2023-02-15T01:36:11.261Z,1.94
2023-02-15T01:36:21.264Z,1.94
2023-02-15T01:36:31.270Z,1.92
2023-02-15T01:36:41.254Z,1.92
2023-02-15T01:36:51.253Z,1.88
2023-02-15T01:37:01.267Z,1.89
2023-02-15T01:37:11.258Z,1.86
2023-02-15T01:37:21.239Z,1.85
2023-02-15T01:37:31.237Z,1.88
2023-02-15T01:37:41.255Z,1.86
2023-02-15T01:37:51.262Z,1.83
2023-02-15T01:38:01.229Z,1.88
2023-02-15T01:38:11.247Z,1.86
2023-02-15T01:38:21.239Z,1.90
2023-02-15T01:38:31.243Z,1.86
2023-02-15T01:38:41.249Z,1.86
2023-02-15T01:38:51.255Z,1.86
2023-02-15T01:39:01.239Z,1.86
2023-02-15T01:39:11.256Z,1.83
2023-02-15T01:39:21.240Z,1.82
2023-02-15T01:39:31.245Z,1.82
2023-02-15T01:39:41.254Z,1.83
2023-02-15T01:39:51.253Z,1.81
2023-02-15T01:40:01.270Z,1.81
2023-02-15T01:40:11.237Z,1.83
2023-02-15T01:40:21.241Z,1.82
2023-02-15T01:40:31.275Z,1.85
2023-02-15T01:40:41.239Z,1.81
2023-02-15T01:40:51.240Z,1.82
2023-02-15T01:41:01.231Z,1.82
2023-02-15T01:41:11.237Z,1.81
2023-02-15T01:41:21.342Z,1.79
2023-02-15T01:41:31.243Z,1.81
2023-02-15T01:41:41.243Z,1.83
2023-02-15T01:41:51.239Z,1.81
2023-02-15T01:42:01.244Z,1.81
2023-02-15T01:42:11.247Z,1.82
2023-02-15T01:42:21.277Z,1.85
2023-02-15T01:42:31.256Z,1.82
2023-02-15T01:42:41.276Z,1.85
2023-02-15T01:42:51.300Z,1.82
2023-02-15T01:43:01.317Z,1.82
2023-02-15T01:43:11.299Z,1.82
2023-02-15T01:43:21.326Z,1.85
2023-02-15T01:43:31.326Z,1.82
2023-02-15T01:43:41.324Z,1.83
2023-02-15T01:43:51.345Z,1.82
2023-02-15T01:44:01.355Z,1.79
2023-02-15T01:44:11.350Z,1.75
2023-02-15T01:44:21.385Z,1.70
2023-02-15T01:44:31.348Z,1.67
2023-02-15T01:44:41.360Z,1.65
2023-02-15T01:44:51.402Z,1.67
2023-02-15T01:45:01.402Z,1.71
2023-02-15T01:45:11.395Z,1.70
2023-02-15T01:45:21.413Z,1.68
2023-02-15T01:45:31.465Z,1.68
2023-02-15T01:45:41.425Z,1.68
2023-02-15T01:45:51.441Z,1.68
2023-02-15T01:46:01.727Z,1.71
2023-02-15T01:46:11.490Z,1.70
2023-02-15T01:46:21.542Z,1.70
2023-02-15T01:46:31.446Z,1.68
2023-02-15T01:46:41.474Z,1.70
2023-02-15T01:46:51.460Z,1.70
2023-02-15T01:47:01.451Z,1.68
2023-02-15T01:47:11.424Z,1.70
2023-02-15T01:47:21.439Z,1.71
2023-02-15T01:47:31.441Z,1.71
2023-02-15T01:47:41.453Z,1.70
2023-02-15T01:47:51.440Z,1.67
2023-02-15T01:48:01.446Z,1.62
2023-02-15T01:48:11.438Z,1.60
2023-02-15T01:48:21.432Z,1.58
2023-02-15T01:48:31.445Z,1.62
2023-02-15T01:48:41.455Z,1.64
2023-02-15T01:48:51.451Z,1.62
2023-02-15T01:49:01.433Z,1.65
2023-02-15T01:49:11.454Z,1.64
2023-02-15T01:49:21.432Z,1.65
2023-02-15T01:49:31.429Z,1.64
2023-02-15T01:49:41.449Z,1.65
2023-02-15T01:49:51.444Z,1.61
2023-02-15T01:50:01.471Z,1.62
2023-02-15T01:50:11.463Z,1.61
2023-02-15T01:50:21.497Z,1.62
2023-02-15T01:50:31.538Z,1.54
2023-02-15T01:50:41.482Z,1.60
2023-02-15T01:50:51.489Z,1.57
2023-02-15T01:51:01.722Z,1.60
2023-02-15T01:51:11.519Z,1.60
2023-02-15T01:51:21.505Z,1.60
2023-02-15T01:51:31.512Z,1.62
2023-02-15T01:51:41.518Z,1.61
2023-02-15T01:51:51.502Z,1.62
2023-02-15T01:52:01.515Z,1.62
2023-02-15T01:52:11.496Z,1.62
2023-02-15T01:52:21.506Z,1.67
2023-02-15T01:52:31.519Z,1.65
2023-02-15T01:52:41.516Z,1.64
2023-02-15T01:52:51.506Z,1.62
2023-02-15T01:53:01.500Z,1.65
2023-02-15T01:53:11.515Z,1.64
2023-02-15T01:53:21.505Z,1.62
2023-02-15T01:53:31.498Z,1.60
2023-02-15T01:53:41.497Z,1.64
2023-02-15T01:54:01.510Z,1.65
2023-02-15T01:54:11.630Z,1.65
2023-02-15T01:54:21.524Z,1.65
2023-02-15T01:54:31.490Z,1.65
2023-02-15T01:54:41.495Z,1.65
2023-02-15T01:54:51.520Z,1.65
2023-02-15T01:55:01.490Z,1.68
2023-02-15T01:55:11.514Z,1.68
2023-02-15T01:55:21.500Z,1.68
2023-02-15T01:55:31.493Z,1.65
2023-02-15T01:55:41.541Z,1.65
2023-02-15T01:55:51.501Z,1.68
2023-02-15T01:56:01.662Z,1.70
2023-02-15T01:56:11.500Z,1.68
2023-02-15T01:56:21.504Z,1.70
2023-02-15T01:56:31.501Z,1.68
2023-02-15T01:56:41.512Z,1.67
2023-02-15T01:56:51.465Z,1.68
2023-02-15T01:57:01.471Z,1.65
2023-02-15T01:57:11.481Z,1.68
2023-02-15T01:57:21.469Z,1.70
2023-02-15T01:57:31.530Z,1.67
2023-02-15T01:57:41.499Z,1.68
2023-02-15T01:57:51.479Z,1.71
2023-02-15T01:58:01.479Z,1.67
2023-02-15T01:58:11.490Z,1.71
2023-02-15T01:58:21.471Z,1.70
2023-02-15T01:58:31.496Z,1.71
2023-02-15T01:58:41.509Z,1.70
2023-02-15T01:58:51.478Z,1.70
2023-02-15T01:59:01.482Z,1.71
2023-02-15T01:59:11.473Z,1.71
2023-02-15T01:59:21.487Z,1.71
2023-02-15T01:59:31.491Z,1.71
2023-02-15T01:59:41.499Z,1.71
2023-02-15T01:59:51.465Z,1.72
2023-02-15T02:00:01.480Z,1.72
2023-02-15T02:00:11.480Z,1.74
2023-02-15T02:00:21.483Z,1.74
2023-02-15T02:00:31.472Z,1.72
2023-02-15T02:00:41.472Z,1.75
2023-02-15T02:00:51.538Z,1.72
2023-02-15T02:01:01.562Z,1.77
2023-02-15T02:01:11.485Z,1.74
2023-02-15T02:01:21.526Z,1.75
2023-02-15T02:01:31.518Z,1.77
2023-02-15T02:01:41.521Z,1.78
2023-02-15T02:01:51.541Z,1.74
2023-02-15T02:02:01.491Z,1.75
2023-02-15T02:02:11.491Z,1.77
2023-02-15T02:02:21.544Z,1.77
2023-02-15T02:02:31.565Z,1.79
2023-02-15T02:02:41.609Z,1.79
2023-02-15T02:02:51.605Z,1.78
2023-02-15T02:03:01.614Z,1.79
2023-02-15T02:03:11.542Z,1.79
2023-02-15T02:03:21.575Z,1.78
2023-02-15T02:03:31.584Z,1.78
2023-02-15T02:03:41.565Z,1.79
2023-02-15T02:03:51.609Z,1.78
2023-02-15T02:04:01.605Z,1.78
2023-02-15T02:04:11.597Z,1.79
2023-02-15T02:04:21.617Z,1.81
2023-02-15T02:04:31.608Z,1.81
2023-02-15T02:04:41.635Z,1.81
2023-02-15T02:04:51.657Z,1.78
2023-02-15T02:05:01.646Z,1.78
2023-02-15T02:05:11.642Z,1.79
2023-02-15T02:05:21.656Z,1.81
2023-02-15T02:05:31.647Z,1.81
2023-02-15T02:05:41.672Z,1.81
2023-02-15T02:05:51.732Z,1.79
2023-02-15T02:06:02.111Z,1.81
2023-02-15T02:06:11.709Z,1.81
2023-02-15T02:06:21.692Z,1.77
2023-02-15T02:06:31.698Z,1.78
2023-02-15T02:06:41.689Z,1.81
2023-02-15T02:06:51.694Z,1.78
2023-02-15T02:07:01.719Z,1.79
2023-02-15T02:07:11.704Z,1.79
2023-02-15T02:07:21.689Z,1.81
2023-02-15T02:07:31.704Z,1.81
2023-02-15T02:07:41.691Z,1.82
2023-02-15T02:07:51.697Z,1.81
2023-02-15T02:08:01.713Z,1.81
2023-02-15T02:08:11.691Z,1.83
2023-02-15T02:08:21.697Z,1.82
2023-02-15T02:08:31.695Z,1.83
2023-02-15T02:08:41.714Z,1.81
2023-02-15T02:08:51.694Z,1.82
2023-02-15T02:09:01.698Z,1.83
2023-02-15T02:09:11.690Z,1.82
2023-02-15T02:09:21.669Z,1.83
2023-02-15T02:09:31.662Z,1.85
2023-02-15T02:09:41.683Z,1.82
2023-02-15T02:09:51.701Z,1.83
2023-02-15T02:10:01.670Z,1.83
2023-02-15T02:10:11.690Z,1.83
2023-02-15T02:10:21.673Z,1.86
2023-02-15T02:10:31.676Z,1.86
2023-02-15T02:10:41.683Z,1.85
2023-02-15T02:10:51.677Z,1.85
2023-02-15T02:11:01.726Z,1.86
2023-02-15T02:11:11.692Z,1.83
2023-02-15T02:11:21.684Z,1.85
2023-02-15T02:11:31.670Z,1.86
2023-02-15T02:11:41.682Z,1.85
2023-02-15T02:11:51.690Z,1.85
2023-02-15T02:12:01.669Z,1.86
2023-02-15T02:12:11.691Z,1.83
2023-02-15T02:12:21.698Z,1.86
2023-02-15T02:12:31.718Z,1.85
2023-02-15T02:12:41.696Z,1.88
2023-02-15T02:12:51.738Z,1.86
2023-02-15T02:13:01.719Z,1.86
2023-02-15T02:13:11.752Z,1.85